Time;durP1;ratioP1;P1;durP2;ratioP2;P2;SDS_P1;SDS_P2;PMS_P1;PMS_P2;Temp;Humidity;BMP_temperature;BMP_pressure;BME280_temperature;BME280_humidity;BME280_pressure;Samples;Min_cycle;Max_cycle;Signal;HPM_P1;HPM_P2
2022/08/05 00:01:22;;;;;;;12.30;7.80;;;;;;;22.65;71.66;100007.09;2841022;81;21053;-94
2022/08/05 00:05:25;;;;;;;12.25;10.08;;;;;;;22.64;71.70;100000.86;2840375;81;21089;-92
2022/08/05 00:09:26;;;;;;;11.12;8.00;;;;;;;22.66;71.78;100000.13;2839106;81;21007;-94
2022/08/05 00:13:37;;;;;;;12.88;9.15;;;;;;;22.67;71.50;99994.16;2838489;81;21070;-89
2022/08/05 00:17:38;;;;;;;10.15;7.72;;;;;;;22.68;71.37;99998.03;2849440;82;21133;-92
2022/08/05 00:21:40;;;;;;;16.60;7.53;;;;;;;22.66;71.91;100001.48;2840301;82;21107;-93
2022/08/05 00:25:41;;;;;;;9.65;8.75;;;;;;;22.58;72.44;99992.74;2845151;81;21126;-89
2022/08/05 00:29:43;;;;;;;9.53;7.35;;;;;;;22.51;73.20;99994.95;2845643;81;21580;-92
2022/08/05 00:33:46;;;;;;;8.93;8.03;;;;;;;22.38;73.70;99995.76;2840881;81;21140;-93
2022/08/05 00:37:48;;;;;;;7.55;6.85;;;;;;;22.19;75.26;99987.98;2815860;82;21031;-93
2022/08/05 00:41:49;;;;;;;8.53;7.42;;;;;;;22.07;75.82;99985.08;2822503;81;21031;-91
2022/08/05 00:45:51;;;;;;;12.65;8.38;;;;;;;21.97;76.53;99987.36;2846989;82;21675;-95
2022/08/05 00:49:53;;;;;;;10.68;9.48;;;;;;;21.96;76.75;99981.63;2857593;81;21099;-91
2022/08/05 00:53:54;;;;;;;9.78;7.75;;;;;;;21.92;77.08;99986.66;2893410;81;21026;-93
2022/08/05 00:57:56;;;;;;;17.48;9.93;;;;;;;21.88;77.42;99984.56;2893638;80;21062;-93
2022/08/05 01:01:57;;;;;;;11.60;9.48;;;;;;;21.88;77.41;99988.09;2898581;80;21258;-83
2022/08/05 01:05:59;;;;;;;12.93;9.45;;;;;;;21.74;78.11;99977.78;2901867;79;21065;-92
2022/08/05 01:10:02;;;;;;;10.28;8.48;;;;;;;21.75;78.23;99978.63;2888643;79;21058;-92
2022/08/05 01:14:32;;;;;;;8.25;7.47;;;;;;;21.78;78.18;99979.02;2890693;80;21080;-93
2022/08/05 01:18:37;;;;;;;10.98;9.00;;;;;;;21.81;77.98;99979.14;2871101;79;21125;-94
2022/08/05 01:23:20;;;;;;;9.05;8.28;;;;;;;21.71;78.45;99970.59;2900076;79;21045;-93
2022/08/05 01:28:15;;;;;;;10.20;8.58;;;;;;;21.59;79.37;99970.34;2877129;79;21050;-93
2022/08/05 01:32:21;;;;;;;8.78;7.87;;;;;;;21.51;79.64;99965.95;2892399;79;21081;-92
2022/08/05 01:36:28;;;;;;;11.10;8.95;;;;;;;21.40;80.88;99967.39;2832878;81;21074;-93
2022/08/05 01:40:32;;;;;;;11.08;9.98;;;;;;;21.40;80.98;99967.39;2817496;82;21020;-92
2022/08/05 01:44:36;;;;;;;11.20;9.65;;;;;;;21.39;81.27;99963.02;2851802;80;21161;-92
2022/08/05 01:48:38;;;;;;;11.22;9.10;;;;;;;21.36;81.69;99960.73;2824556;82;21598;-85
2022/08/05 01:52:43;;;;;;;12.53;9.00;;;;;;;21.32;81.76;99956.78;2811506;82;21043;-95
2022/08/05 01:56:47;;;;;;;10.63;8.47;;;;;;;21.20;83.09;99951.13;2834957;81;21172;-91
2022/08/05 02:00:51;;;;;;;9.38;8.05;;;;;;;21.07;83.56;99938.42;2836379;82;21785;-92
2022/08/05 02:04:57;;;;;;;11.53;9.05;;;;;;;20.97;84.22;99945.56;2832918;81;21030;-93
2022/08/05 02:08:58;;;;;;;15.53;9.23;;;;;;;20.86;84.57;99941.58;2837281;82;21068;-91
2022/08/05 02:13:14;;;;;;;13.20;10.30;;;;;;;20.67;85.53;99943.11;2846693;81;21597;-92
2022/08/05 02:17:27;;;;;;;10.03;7.90;;;;;;;20.57;86.43;99942.13;2840218;82;21121;-93
2022/08/05 02:21:33;;;;;;;11.53;7.92;;;;;;;20.57;86.61;99941.31;2835640;81;21050;-94
2022/08/05 02:25:39;;;;;;;10.30;9.30;;;;;;;20.57;86.77;99946.18;2821304;81;21066;-92
2022/08/05 02:29:42;;;;;;;;;;;;;;;20.55;87.04;99946.90;2846073;82;21059;-93
2022/08/05 02:33:51;;;;;;;10.82;9.23;;;;;;;20.54;87.55;99934.42;2839443;82;20565;-93
2022/08/05 02:37:56;;;;;;;10.40;9.28;;;;;;;20.65;86.62;99941.98;2834313;82;21055;-92
2022/08/05 02:41:58;;;;;;;20.25;9.93;;;;;;;20.74;86.52;99937.23;2838529;82;21041;-92
2022/08/05 02:46:01;;;;;;;12.95;8.93;;;;;;;20.73;86.52;99931.48;2815537;82;21058;-93
2022/08/05 02:50:06;;;;;;;12.30;9.58;;;;;;;20.81;85.90;99925.11;2812837;82;21562;-93
2022/08/05 02:54:10;;;;;;;12.18;10.45;;;;;;;20.77;86.74;99926.52;2760717;82;21075;-89
2022/08/05 02:58:15;;;;;;;10.13;9.15;;;;;;;20.71;87.01;99926.80;2781660;82;21083;-87
2022/08/05 03:02:21;;;;;;;11.08;9.93;;;;;;;20.67;87.52;99924.20;2741954;83;21022;-93
2022/08/05 03:06:24;;;;;;;13.88;9.75;;;;;;;20.66;87.61;99926.58;2800075;82;21620;-88
2022/08/05 03:10:26;;;;;;;13.43;9.80;;;;;;;20.63;87.74;99921.05;2878970;80;21023;-91
2022/08/05 03:14:27;;;;;;;9.88;8.38;;;;;;;20.61;87.95;99919.60;2892327;80;21062;-88
2022/08/05 03:18:29;;;;;;;12.40;8.80;;;;;;;20.50;88.80;99916.42;2890571;80;21066;-91
2022/08/05 03:22:30;;;;;;;11.25;10.15;;;;;;;20.48;88.86;99912.28;2803096;82;21046;-92
2022/08/05 03:26:44;;;;;;;11.65;10.45;;;;;;;20.34;89.37;99901.89;2805157;82;21095;-93
2022/08/05 03:30:48;;;;;;;9.88;8.88;;;;;;;20.31;89.61;99912.59;2786552;83;21064;-92
2022/08/05 03:34:49;;;;;;;24.00;8.85;;;;;;;20.21;90.37;99910.77;2901768;80;21034;-92
2022/08/05 03:38:51;;;;;;;12.65;9.38;;;;;;;20.20;90.41;99907.75;2865629;80;21054;-88
2022/08/05 03:42:52;;;;;;;10.23;8.95;;;;;;;20.21;90.45;99910.26;2876737;80;21033;-92
2022/08/05 03:46:53;;;;;;;11.30;10.08;;;;;;;20.19;90.65;99912.83;2889950;80;22693;-91
2022/08/05 03:51:18;;;;;;;12.85;9.20;;;;;;;20.06;91.91;99914.43;2880892;80;21018;-89
2022/08/05 03:55:27;;;;;;;10.93;9.70;;;;;;;20.08;91.88;99908.31;2895004;80;21054;-91
2022/08/05 03:59:36;;;;;;;11.63;10.43;;;;;;;20.06;92.37;99902.28;2888548;79;21023;-92
2022/08/05 04:03:39;;;;;;;10.08;8.90;;;;;;;20.09;92.37;99907.28;2892784;79;21124;-87
2022/08/05 04:07:41;;;;;;;9.55;8.30;;;;;;;20.18;92.08;99903.06;2877500;80;21105;-90
2022/08/05 04:11:43;;;;;;;8.83;7.50;;;;;;;20.24;91.82;99902.26;2887028;80;21053;-91
2022/08/05 04:15:46;;;;;;;10.18;8.50;;;;;;;20.52;90.37;99908.13;2893079;80;21022;-91
2022/08/05 04:19:48;;;;;;;11.28;10.08;;;;;;;20.72;89.35;99892.52;2892992;79;21153;-93
2022/08/05 04:23:49;;;;;;;17.35;10.72;;;;;;;21.00;88.91;99903.75;2898396;79;21912;-94
2022/08/05 04:27:51;;;;;;;36.90;11.65;;;;;;;21.62;85.89;99903.11;2880919;79;21185;-91
2022/08/05 04:31:52;;;;;;;13.35;8.08;;;;;;;22.64;81.92;99888.38;2894698;79;21065;-91
2022/08/05 04:35:54;;;;;;;11.18;9.15;;;;;;;23.54;77.91;99897.97;2830272;81;21042;-94
2022/08/05 04:39:57;;;;;;;11.18;9.70;;;;;;;24.16;74.52;99893.13;2893320;80;21045;-90
2022/08/05 04:43:59;;;;;;;10.58;8.05;;;;;;;24.57;72.70;99895.37;2892445;80;21046;-92
2022/08/05 04:48:08;;;;;;;11.65;8.65;;;;;;;24.88;71.47;99892.20;2827074;81;21370;-91
2022/08/05 04:52:10;;;;;;;8.60;7.60;;;;;;;25.40;69.97;99894.35;2886168;81;20993;-88
2022/08/05 04:56:11;;;;;;;7.95;7.22;;;;;;;25.68;68.39;99896.95;2895789;80;21429;-89
2022/08/05 05:00:14;;;;;;;8.68;7.40;;;;;;;26.11;66.36;99900.39;2911753;79;21570;-89
2022/08/05 05:04:15;;;;;;;7.87;7.08;;;;;;;26.41;65.79;99886.33;2903609;79;21085;-87
2022/08/05 05:08:17;;;;;;;13.75;8.30;;;;;;;26.62;64.61;99892.48;2901090;80;21030;-90
2022/08/05 05:12:19;;;;;;;9.38;7.92;;;;;;;26.69;64.57;99883.32;2831461;82;21430;-92
2022/08/05 05:16:21;;;;;;;12.00;8.50;;;;;;;27.01;64.12;99885.05;2838363;81;21060;-92
2022/08/05 05:20:23;;;;;;;8.38;6.55;;;;;;;27.22;63.23;99884.06;2843702;82;21026;-92
2022/08/05 05:24:25;;;;;;;9.40;7.28;;;;;;;27.55;62.33;99885.72;2845022;81;21088;-94
2022/08/05 05:28:26;;;;;;;9.53;7.67;;;;;;;27.83;61.31;99890.25;2839264;82;21038;-93
2022/08/05 05:32:28;;;;;;;7.65;7.03;;;;;;;28.03;61.13;99892.44;2845867;81;21030;-93
2022/08/05 05:36:32;;;;;;;9.43;7.45;;;;;;;28.01;60.76;99900.06;2895861;80;21023;-94
2022/08/05 05:40:34;;;;;;;8.40;7.40;;;;;;;28.15;59.51;99899.16;2897170;80;21105;-91
2022/08/05 05:44:35;;;;;;;12.05;6.67;;;;;;;27.91;60.64;99895.83;2838929;81;21035;-91
2022/08/05 05:48:37;;;;;;;9.45;6.87;;;;;;;28.01;60.58;99900.62;2896614;80;21765;-95
2022/08/05 05:52:39;;;;;;;9.95;7.12;;;;;;;28.18;59.65;99901.41;2895536;80;21129;-91
2022/08/05 05:56:40;;;;;;;7.62;6.20;;;;;;;28.09;59.76;99880.48;2846021;81;21046;-92
2022/08/05 06:00:43;;;;;;;7.65;6.72;;;;;;;28.36;59.55;99892.61;2895451;80;21011;-94
2022/08/05 06:04:46;;;;;;;9.05;6.35;;;;;;;28.62;58.31;99863.66;2893107;79;20990;-94
2022/08/05 06:08:48;;;;;;;8.23;6.97;;;;;;;29.13;57.50;99887.73;2870455;80;21145;-91
2022/08/05 06:12:49;;;;;;;8.23;6.55;;;;;;;28.87;57.80;99891.59;2898010;80;21034;-93
2022/08/05 06:16:51;;;;;;;6.37;5.72;;;;;;;29.08;57.01;99881.66;2895240;79;21038;-92
2022/08/05 06:20:52;;;;;;;14.70;8.38;;;;;;;28.78;58.13;99893.38;2901783;79;21022;-93
2022/08/05 06:24:53;;;;;;;6.10;5.53;;;;;;;28.97;57.40;99890.88;2914894;79;21007;-91
2022/08/05 06:28:55;;;;;;;11.05;7.75;;;;;;;29.13;58.38;99890.47;2894354;79;21022;-90
2022/08/05 06:32:56;;;;;;;7.10;6.40;;;;;;;28.96;57.74;99893.33;2889167;79;21010;-90
2022/08/05 06:36:58;;;;;;;6.30;5.33;;;;;;;29.50;56.22;99892.47;2904869;79;21106;-86
2022/08/05 06:41:00;;;;;;;10.93;5.62;;;;;;;29.93;56.91;99889.75;2821594;81;21019;-92
2022/08/05 06:45:03;;;;;;;9.75;6.47;;;;;;;30.25;54.86;99891.58;2847026;81;21007;-91
2022/08/05 06:49:04;;;;;;;6.45;5.60;;;;;;;30.59;54.11;99889.80;2841069;82;21074;-94
2022/08/05 06:53:06;;;;;;;6.75;5.85;;;;;;;30.80;52.83;99886.33;2829161;82;21638;-89
2022/08/05 06:57:07;;;;;;;9.40;5.58;;;;;;;30.86;53.23;99879.74;2818315;83;21042;-89
2022/08/05 07:01:09;;;;;;;8.50;5.35;;;;;;;31.11;52.00;99884.98;2851650;81;21067;-89
2022/08/05 07:05:11;;;;;;;5.62;5.12;;;;;;;31.30;51.62;99874.33;2842208;82;21082;-89
2022/08/05 07:09:13;;;;;;;9.50;5.08;;;;;;;31.64;51.07;99873.73;2846300;82;21469;-93
2022/08/05 07:17:35;;;;;;;6.17;4.70;;;;;;;31.89;51.79;99872.89;2846393;82;21044;-89
2022/08/05 07:21:37;;;;;;;7.15;4.60;;;;;;;32.13;50.63;99868.17;2832126;81;21043;-83
2022/08/05 07:25:38;;;;;;;13.20;9.75;;;;;;;32.37;48.50;99863.95;2820511;82;21767;-93
2022/08/05 07:29:40;;;;;;;9.10;5.45;;;;;;;32.47;49.72;99866.10;2805399;81;20993;-90
2022/08/05 07:33:44;;;;;;;8.33;6.55;;;;;;;32.24;49.25;99864.83;2822196;82;21012;-89
2022/08/05 07:37:45;;;;;;;14.15;10.25;;;;;;;32.38;49.42;99865.59;2816193;82;21059;-95
2022/08/05 07:41:47;;;;;;;11.93;6.15;;;;;;;32.72;48.23;99869.00;2866648;80;21003;-89
2022/08/05 07:45:49;;;;;;;6.45;5.85;;;;;;;32.97;48.69;99865.29;2818065;82;21074;-90
2022/08/05 07:49:51;;;;;;;18.57;7.95;;;;;;;32.98;47.69;99864.18;2812063;82;21438;-91
2022/08/05 07:53:55;;;;;;;7.33;6.15;;;;;;;33.13;49.73;99859.67;2800702;83;20998;-90
2022/08/05 07:57:58;;;;;;;6.08;4.92;;;;;;;33.33;47.24;99855.36;2817872;83;21000;-93
2022/08/05 08:02:01;;;;;;;5.90;5.40;;;;;;;33.62;48.26;99856.50;2846817;81;21026;-92
2022/08/05 08:06:03;;;;;;;5.50;5.03;;;;;;;33.92;46.56;99857.27;2793957;81;21053;-92
2022/08/05 08:10:05;;;;;;;8.38;6.10;;;;;;;34.01;46.17;99857.48;2807017;81;21034;-94
2022/08/05 08:14:06;;;;;;;5.25;3.85;;;;;;;34.17;49.69;99859.48;2847697;81;21034;-95
2022/08/05 08:18:08;;;;;;;10.63;4.37;;;;;;;34.53;48.42;99853.52;2827930;81;21069;-93
2022/08/05 08:22:10;;;;;;;8.95;3.75;;;;;;;34.69;45.64;99854.69;2842944;82;21057;-91
2022/08/05 08:26:12;;;;;;;6.55;4.20;;;;;;;34.76;43.39;99844.08;2823495;81;21021;-90
2022/08/05 08:30:15;;;;;;;5.67;3.33;;;;;;;34.87;44.75;99842.81;2842588;81;21046;-92
2022/08/05 08:34:19;;;;;;;5.10;3.55;;;;;;;35.04;45.99;99835.95;2846754;82;21005;-92
2022/08/05 08:38:20;;;;;;;7.87;3.72;;;;;;;35.22;44.79;99836.21;2839305;81;21655;-92
2022/08/05 08:42:22;;;;;;;11.03;4.55;;;;;;;35.53;44.23;99827.38;2845318;82;21117;-93
2022/08/05 08:46:29;;;;;;;6.60;3.90;;;;;;;35.55;44.17;99825.13;2843168;81;21130;-94
2022/08/05 08:50:33;;;;;;;16.32;5.22;;;;;;;35.77;42.38;99823.05;2824218;81;21041;-89
2022/08/05 08:54:35;;;;;;;5.45;3.47;;;;;;;36.01;43.74;99831.14;2825939;81;21047;-92
2022/08/05 08:58:37;;;;;;;44.33;12.58;;;;;;;36.25;43.53;99830.11;2831010;81;21049;-91
2022/08/05 09:02:38;;;;;;;60.43;14.95;;;;;;;36.33;40.45;99836.03;2836302;81;21027;-91
2022/08/05 09:06:40;;;;;;;3.85;2.90;;;;;;;36.37;40.63;99829.58;2847391;81;20997;-92
2022/08/05 09:10:43;;;;;;;29.02;6.97;;;;;;;36.38;42.19;99827.06;2850990;81;21067;-89
2022/08/05 09:14:45;;;;;;;4.07;2.77;;;;;;;36.43;38.97;99828.90;2847192;81;21042;-88
2022/08/05 09:18:47;;;;;;;25.25;7.53;;;;;;;36.47;39.15;99825.75;2847233;82;21080;-93
2022/08/05 09:23:17;;;;;;;4.08;2.10;;;;;;;36.67;40.67;99822.28;2847398;80;21086;-90
2022/08/05 09:27:32;;;;;;;6.33;2.42;;;;;;;36.55;38.01;99815.34;2834563;82;21045;-88
2022/08/05 09:31:34;;;;;;;5.15;3.00;;;;;;;36.61;38.41;99813.27;2849662;82;21019;-92
2022/08/05 09:35:35;;;;;;;3.67;2.25;;;;;;;36.56;37.14;99821.16;2851625;80;21022;-91
2022/08/05 09:39:38;;;;;;;10.80;2.55;;;;;;;36.52;36.94;99817.91;2850668;81;21053;-92
2022/08/05 09:43:39;;;;;;;45.30;10.05;;;;;;;36.52;38.06;99813.75;2856314;81;21022;-91
2022/08/05 09:47:41;;;;;;;8.63;3.15;;;;;;;36.72;38.18;99813.30;2844772;80;21040;-89
2022/08/05 09:51:42;;;;;;;2.40;1.77;;;;;;;36.84;37.40;99810.51;2807503;82;21048;-87
2022/08/05 09:55:45;;;;;;;4.50;2.22;;;;;;;36.91;37.39;99815.06;2854076;82;21102;-92
2022/08/05 09:59:47;;;;;;;4.28;1.90;;;;;;;36.97;36.26;99814.38;2849137;82;21089;-91
2022/08/05 10:04:03;;;;;;;6.12;2.17;;;;;;;36.68;36.96;99808.69;2820123;82;21023;-92
2022/08/05 10:08:05;;;;;;;5.10;2.05;;;;;;;36.85;38.37;99801.89;2837954;82;21125;-92
2022/08/05 10:12:09;;;;;;;7.62;2.08;;;;;;;36.94;34.83;99801.13;2777149;81;21106;-91
2022/08/05 10:16:32;;;;;;;6.65;2.40;;;;;;;36.92;35.47;99795.91;2834236;81;21062;-89
2022/08/05 10:20:40;;;;;;;1.95;1.85;;;;;;;36.94;35.47;99790.03;2824879;81;21106;-92
2022/08/05 10:24:42;;;;;;;2.20;2.00;;;;;;;36.97;36.33;99783.89;2827347;82;21040;-93
2022/08/05 10:28:44;;;;;;;3.42;2.50;;;;;;;37.00;35.60;99786.83;2841830;82;21173;-93
2022/08/05 10:32:47;;;;;;;3.47;2.58;;;;;;;37.07;36.38;99785.61;2839344;82;21029;-89
2022/08/05 10:36:50;;;;;;;4.10;2.87;;;;;;;37.03;34.12;99784.58;2827693;82;21000;-94
2022/08/05 10:41:19;;;;;;;2.58;2.37;;;;;;;36.83;35.70;99780.61;2805526;81;21601;-92
2022/08/05 10:45:29;;;;;;;4.22;2.77;;;;;;;36.87;35.21;99770.53;2833953;82;21040;-92
2022/08/05 10:49:31;;;;;;;4.95;2.95;;;;;;;36.39;38.07;99776.67;2855184;81;21056;-91
2022/08/05 10:53:59;;;;;;;3.65;2.65;;;;;;;36.36;38.26;99773.95;2839355;82;21077;-91
2022/08/05 10:58:09;;;;;;;2.65;2.37;;;;;;;36.40;38.38;99779.69;2832599;81;21182;-91
2022/08/05 11:02:13;;;;;;;3.30;2.58;;;;;;;36.70;40.14;99778.72;2808743;81;21561;-89
2022/08/05 11:06:15;;;;;;;4.62;2.70;;;;;;;36.79;36.73;99771.30;2842767;82;21005;-96
2022/08/05 11:10:24;;;;;;;3.02;2.30;;;;;;;36.86;35.88;99771.66;2847426;82;21037;-82
2022/08/05 11:14:31;;;;;;;3.08;2.27;;;;;;;37.01;35.42;99766.91;2849940;81;21014;-93
2022/08/05 11:18:33;;;;;;;2.83;2.58;;;;;;;36.80;35.96;99761.86;2826154;81;21045;-96
2022/08/05 11:22:47;;;;;;;7.25;2.42;;;;;;;36.84;36.19;99759.25;2844002;81;21073;-93
2022/08/05 11:26:53;;;;;;;14.00;4.08;;;;;;;36.98;35.40;99764.16;2854836;81;21167;-90
2022/08/05 11:31:00;;;;;;;2.20;2.00;;;;;;;37.09;34.70;99760.58;2842637;82;21064;-91
2022/08/05 11:35:02;;;;;;;10.30;1.77;;;;;;;37.18;34.35;99758.44;2853016;81;20995;-92
2022/08/05 11:39:05;;;;;;;4.10;2.40;;;;;;;37.13;36.26;99764.34;2845005;81;21116;-91
2022/08/05 11:43:07;;;;;;;2.70;2.50;;;;;;;37.16;37.09;99758.73;2852371;81;21096;-94
2022/08/05 11:47:09;;;;;;;6.37;2.08;;;;;;;37.39;38.21;99759.51;2842184;82;21018;-87
2022/08/05 11:51:10;;;;;;;7.00;2.20;;;;;;;37.15;35.27;99751.01;2844593;81;21263;-91
2022/08/05 11:55:13;;;;;;;5.22;2.15;;;;;;;37.10;36.49;99766.37;2843483;81;21430;-94
2022/08/05 11:59:18;;;;;;;2.08;1.87;;;;;;;37.25;37.47;99764.33;2843518;82;21118;-91
2022/08/05 12:03:20;;;;;;;2.65;2.42;;;;;;;37.42;39.11;99760.80;2846160;81;21101;-91
2022/08/05 12:07:22;;;;;;;3.72;2.58;;;;;;;37.56;37.68;99763.52;2848533;81;21033;-93
2022/08/05 12:11:30;;;;;;;6.03;3.65;;;;;;;37.48;35.79;99771.19;2840334;82;21388;-93
2022/08/05 12:15:31;;;;;;;2.20;2.00;;;;;;;37.32;35.93;99763.88;2829087;81;21717;-89
2022/08/05 12:19:47;;;;;;;2.42;1.65;;;;;;;37.27;36.85;99760.11;2846141;81;21146;-91
2022/08/05 12:24:12;;;;;;;4.20;2.33;;;;;;;37.20;36.97;99753.39;2854533;81;21089;-88
2022/08/05 12:28:33;;;;;;;4.42;2.52;;;;;;;37.18;35.53;99757.05;2857319;81;21076;-91
2022/08/05 12:32:45;;;;;;;2.10;2.00;;;;;;;37.14;35.67;99756.30;2842837;82;21057;-92
2022/08/05 12:36:50;;;;;;;2.37;2.05;;;;;;;37.22;34.16;99748.34;2851959;81;21032;-90
2022/08/05 12:40:53;;;;;;;3.17;2.27;;;;;;;37.33;34.48;99741.94;2842478;82;21015;-92
2022/08/05 12:45:07;;;;;;;4.62;2.80;;;;;;;37.40;35.25;99747.28;2829315;81;21137;-92
2022/08/05 12:49:13;;;;;;;2.37;2.17;;;;;;;37.48;35.34;99738.74;2843272;81;21058;-90
2022/08/05 12:53:16;;;;;;;2.95;2.70;;;;;;;37.54;36.20;99739.45;2849663;81;21094;-95
2022/08/05 12:57:18;;;;;;;2.60;2.40;;;;;;;37.54;34.92;99736.68;2847355;79;21029;-94
2022/08/05 13:01:22;;;;;;;3.22;1.98;;;;;;;37.61;33.84;99743.12;2839891;81;21057;-91
2022/08/05 13:05:26;;;;;;;2.50;2.10;;;;;;;37.60;35.44;99739.54;2846590;82;21130;-90
2022/08/05 13:09:29;;;;;;;3.87;2.30;;;;;;;37.60;33.95;99736.77;2846764;81;21049;-86
2022/08/05 13:25:45;;;;;;;2.75;2.12;;;;;;;38.10;33.29;99730.03;3015416;78;22227;-94
2022/08/05 13:29:47;;;;;;;2.95;2.15;;;;;;;38.16;34.78;99727.91;2973518;80;21046;-92
2022/08/05 13:42:25;;;;;;;12.63;3.58;;;;;;;37.98;35.93;99729.28;2784004;83;21672;-92
2022/08/05 13:46:27;;;;;;;3.90;2.12;;;;;;;37.97;34.86;99720.72;2777260;83;21088;-91
2022/08/05 13:50:28;;;;;;;3.70;3.05;;;;;;;38.08;35.64;99718.98;2789535;83;21031;-90
2022/08/05 13:54:29;;;;;;;2.42;2.25;;;;;;;38.12;37.00;99717.19;2752729;85;20995;-91
2022/08/05 13:58:31;;;;;;;5.72;2.33;;;;;;;38.22;36.09;99715.48;2755516;84;21043;-90
2022/08/05 14:02:32;;;;;;;3.27;2.42;;;;;;;38.05;34.22;99710.77;2724316;86;21034;-90
2022/08/05 14:06:33;;;;;;;2.25;2.05;;;;;;;38.14;36.47;99717.70;2725797;86;21054;-90
2022/08/05 14:10:35;;;;;;;4.55;2.62;;;;;;;38.17;35.55;99712.05;2670431;86;21066;-91
2022/08/05 14:14:36;;;;;;;2.60;2.40;;;;;;;38.25;36.20;99713.44;2726745;86;21036;-91
2022/08/05 14:18:38;;;;;;;4.20;3.02;;;;;;;38.28;37.44;99708.62;2752006;84;21002;-89
2022/08/05 14:22:41;;;;;;;3.40;3.10;;;;;;;38.29;38.10;99712.23;2749700;86;21037;-91
2022/08/05 14:26:42;;;;;;;3.00;1.85;;;;;;;38.28;37.10;99711.39;2730233;84;21036;-88
2022/08/05 14:30:43;;;;;;;9.93;2.98;;;;;;;38.31;34.94;99706.33;2786619;83;21011;-88
2022/08/05 14:34:44;;;;;;;21.82;7.47;;;;;;;38.36;37.13;99695.08;2760031;85;21049;-90
2022/08/05 14:38:49;;;;;;;13.28;4.40;;;;;;;38.45;36.75;99693.70;2744435;84;21129;-90
2022/08/05 14:42:51;;;;;;;3.45;2.85;;;;;;;38.49;36.67;99692.70;2740988;84;21030;-90
2022/08/05 14:46:52;;;;;;;4.22;2.55;;;;;;;38.50;37.25;99687.38;2749111;85;21070;-90
2022/08/05 14:50:55;;;;;;;3.35;2.47;;;;;;;38.39;36.28;99697.98;2697162;86;21016;-90
2022/08/05 14:54:57;;;;;;;8.20;2.62;;;;;;;38.33;36.34;99694.34;2725679;85;21007;-89
2022/08/05 14:58:59;;;;;;;2.22;2.00;;;;;;;38.37;35.75;99692.54;2758165;84;21034;-91
2022/08/05 15:03:01;;;;;;;5.33;2.40;;;;;;;38.19;35.65;99687.00;2764402;85;21025;-89
2022/08/05 15:07:03;;;;;;;7.83;3.02;;;;;;;38.12;35.71;99684.70;2734050;86;21368;-88
2022/08/05 15:11:06;;;;;;;4.83;3.30;;;;;;;38.09;35.40;99683.15;2724880;86;21034;-90
2022/08/05 15:15:09;;;;;;;4.05;1.77;;;;;;;37.95;35.75;99686.06;2752036;85;21038;-89
2022/08/05 15:19:10;;;;;;;7.58;2.33;;;;;;;37.79;36.79;99682.95;2744620;85;21041;-90
2022/08/05 15:23:12;;;;;;;51.10;9.65;;;;;;;37.64;37.03;99689.20;2761145;85;21003;-89
2022/08/05 15:27:13;;;;;;;19.65;4.62;;;;;;;37.49;38.04;99683.52;2767686;84;21002;-89
2022/08/05 15:31:15;;;;;;;8.18;3.33;;;;;;;37.30;37.42;99676.29;2770091;85;21006;-89
2022/08/05 15:35:16;;;;;;;5.95;1.95;;;;;;;37.29;38.21;99680.76;2741799;85;21013;-90
2022/08/05 15:39:18;;;;;;;3.60;1.92;;;;;;;37.34;37.68;99676.48;2796932;83;21192;-91
2022/08/05 15:43:20;;;;;;;3.02;2.83;;;;;;;37.38;39.07;99671.91;2769713;83;21014;-88
2022/08/05 15:47:21;;;;;;;5.75;2.27;;;;;;;37.41;38.80;99671.27;2769632;85;20982;-88
2022/08/05 15:51:27;;;;;;;4.90;2.80;;;;;;;37.40;36.37;99669.63;2735293;85;21047;-89
2022/08/05 15:55:29;;;;;;;2.30;2.05;;;;;;;37.30;36.76;99672.13;2764916;84;20947;-89
2022/08/05 15:59:30;;;;;;;5.83;2.67;;;;;;;37.31;35.68;99668.77;2729198;84;21031;-90
2022/08/05 16:03:32;;;;;;;3.95;2.42;;;;;;;37.14;36.30;99671.77;2794175;84;21022;-89
2022/08/05 16:07:33;;;;;;;2.85;2.60;;;;;;;36.88;37.14;99672.41;2794063;84;21070;-88
2022/08/05 16:11:36;;;;;;;4.58;2.37;;;;;;;36.67;36.70;99676.87;2794571;84;21073;-90
2022/08/05 16:15:37;;;;;;;3.62;2.30;;;;;;;36.45;37.55;99683.45;2793775;83;21038;-89
2022/08/05 16:19:39;;;;;;;4.80;2.25;;;;;;;36.21;38.19;99679.63;2794727;84;21002;-90
2022/08/05 16:23:40;;;;;;;4.05;2.67;;;;;;;36.05;38.71;99681.12;2793626;83;21046;-91
2022/08/05 16:27:42;;;;;;;3.62;2.47;;;;;;;35.96;38.87;99683.20;2793508;83;21108;-88
2022/08/05 16:31:43;;;;;;;3.58;3.27;;;;;;;35.71;39.87;99689.56;2757081;84;21050;-89
2022/08/05 16:35:45;;;;;;;5.17;2.58;;;;;;;35.41;38.88;99686.30;2702306;84;21081;-91
2022/08/05 16:39:46;;;;;;;31.02;5.78;;;;;;;35.25;39.60;99694.06;2793966;83;21061;-89
2022/08/05 16:43:48;;;;;;;31.00;7.12;;;;;;;35.03;40.11;99705.25;2770363;84;21010;-91
2022/08/05 16:47:49;;;;;;;19.30;6.37;;;;;;;34.86;40.72;99700.30;2788859;83;21022;-91
2022/08/05 16:51:50;;;;;;;2.65;2.40;;;;;;;34.75;41.26;99699.66;2766573;86;21022;-90
2022/08/05 16:55:52;;;;;;;4.67;3.52;;;;;;;34.60;41.15;99704.05;2763205;84;20991;-90
2022/08/05 16:59:55;;;;;;;3.25;2.72;;;;;;;34.54;41.25;99710.22;2761244;84;21046;-90
2022/08/05 17:03:56;;;;;;;3.05;2.67;;;;;;;34.43;41.78;99710.11;2720907;84;21024;-90
2022/08/05 17:07:57;;;;;;;3.08;2.80;;;;;;;34.30;41.92;99711.11;2761786;82;21156;-93
2022/08/05 17:11:59;;;;;;;6.80;4.17;;;;;;;34.16;42.29;99715.20;2785848;84;21068;-92
2022/08/05 17:16:03;;;;;;;6.00;5.33;;;;;;;33.85;43.76;99741.78;2788174;84;21149;-89
2022/08/05 17:20:08;;;;;;;6.85;5.55;;;;;;;33.67;45.44;99745.31;2786531;84;21595;-89
2022/08/05 17:24:10;;;;;;;5.85;5.35;;;;;;;33.56;46.33;99752.89;2783613;84;21005;-92
2022/08/05 17:28:12;;;;;;;6.83;6.22;;;;;;;33.43;46.70;99748.36;2784836;85;21056;-91
2022/08/05 17:32:15;;;;;;;7.22;6.00;;;;;;;33.35;46.65;99759.17;2791375;83;21038;-83
2022/08/05 17:36:16;;;;;;;5.80;5.40;;;;;;;33.22;47.24;99767.58;2756444;82;69347;-58
2022/08/05 17:40:19;;;;;;;5.60;5.17;;;;;;;33.08;47.53;99771.00;2716388;87;21123;-57
2022/08/05 17:44:20;;;;;;;7.60;4.78;;;;;;;32.99;47.81;99769.96;2703504;87;21069;-57
2022/08/05 17:48:22;;;;;;;10.18;5.85;;;;;;;32.83;47.85;99774.22;2714622;87;21010;-58
2022/08/05 17:52:23;;;;;;;4.90;4.47;;;;;;;32.74;48.12;99786.94;2720518;87;21077;-57
2022/08/05 17:56:27;;;;;;;7.12;6.30;;;;;;;32.62;48.46;99797.77;2655838;88;21002;-57
2022/08/05 18:00:29;;;;;;;6.58;6.15;;;;;;;32.54;48.41;99807.99;2665550;89;21035;-59
2022/08/05 18:04:31;;;;;;;6.12;5.60;;;;;;;32.42;48.67;99814.39;2707514;88;21035;-57
2022/08/05 18:08:33;;;;;;;6.50;5.90;;;;;;;32.32;48.93;99826.23;2624540;88;21081;-59
2022/08/05 18:12:34;;;;;;;7.87;5.95;;;;;;;32.23;49.49;99830.70;2706805;85;21019;-57
2022/08/05 18:16:45;;;;;;;6.70;6.00;;;;;;;32.18;49.74;99835.67;2638865;89;21020;-57
2022/08/05 18:25:13;;;;;;;16.93;8.50;;;;;;;31.93;49.78;99858.05;2752835;85;21092;-95
2022/08/05 18:29:15;;;;;;;11.97;7.15;;;;;;;31.87;50.19;99870.17;2748030;86;21138;-86
2022/08/05 18:33:16;;;;;;;8.30;6.45;;;;;;;31.79;50.73;99859.73;2730269;84;21079;-90
2022/08/05 18:37:20;;;;;;;12.00;7.67;;;;;;;31.67;51.26;99864.95;2723629;86;21064;-90
2022/08/05 18:59:46;;;;;;;7.33;5.75;;;;;;;30.73;54.48;99901.67;2788479;83;21095;-94
2022/08/05 19:03:48;;;;;;;10.15;6.22;;;;;;;30.46;54.27;99939.67;2767404;83;21065;-90
2022/08/05 19:07:56;;;;;;;9.90;6.47;;;;;;;30.33;54.74;99928.12;2775361;84;21046;-91
2022/08/05 19:11:56;;;;;;;8.23;6.95;;;;;;;30.18;54.96;99937.09;2783698;84;21086;-96
2022/08/05 19:15:58;;;;;;;8.60;5.37;;;;;;;30.08;55.45;99945.81;2793269;83;21034;-91
2022/08/05 19:19:59;;;;;;;8.68;5.90;;;;;;;29.98;55.58;99962.98;2795259;83;21102;-92
2022/08/05 19:24:00;;;;;;;6.50;5.90;;;;;;;29.84;56.22;99965.33;2790915;83;20999;-90
2022/08/05 19:28:02;;;;;;;6.37;5.60;;;;;;;29.72;56.62;99961.41;2789486;83;21078;-95
2022/08/05 19:32:07;;;;;;;5.97;5.17;;;;;;;29.62;56.93;99967.10;2791867;83;21042;-89
2022/08/05 19:40:19;;;;;;;6.20;5.45;;;;;;;29.42;57.71;99988.27;2875191;78;72821;-96
2022/08/05 19:44:20;;;;;;;10.80;5.67;;;;;;;29.28;58.23;99997.42;2872934;81;21019;-94
2022/08/05 19:48:21;;;;;;;7.22;4.92;;;;;;;29.18;58.89;99990.45;2869787;82;21494;-93
2022/08/05 19:52:23;;;;;;;11.48;5.22;;;;;;;29.00;59.93;99997.12;2870679;81;21031;-96
2022/08/05 19:56:24;;;;;;;7.12;5.55;;;;;;;28.89;60.61;99997.02;2851309;82;21131;-93